sensor_id;sensor_type;location;lat;lon;timestamp;pressure;altitude;pressure_sealevel;temperature;humidity
32081;BME280;18593;51.426;7.030;2023-03-03T00:01:30;101268.00;;;4.74;60.01
32081;BME280;18593;51.426;7.030;2023-03-03T00:03:58;101271.31;;;4.58;60.37
32081;BME280;18593;51.426;7.030;2023-03-03T00:06:25;101265.38;;;4.56;60.82
32081;BME280;18593;51.426;7.030;2023-03-03T00:08:52;101271.41;;;4.67;60.65
32081;BME280;18593;51.426;7.030;2023-03-03T00:11:19;101266.56;;;4.62;60.27
32081;BME280;18593;51.426;7.030;2023-03-03T00:13:49;101267.94;;;4.66;60.30
32081;BME280;18593;51.426;7.030;2023-03-03T00:16:21;101271.09;;;4.70;60.06
32081;BME280;18593;51.426;7.030;2023-03-03T00:18:49;101273.22;;;4.66;60.01
32081;BME280;18593;51.426;7.030;2023-03-03T00:21:25;101273.97;;;4.58;60.83
32081;BME280;18593;51.426;7.030;2023-03-03T00:23:54;101281.59;;;4.61;60.49
32081;BME280;18593;51.426;7.030;2023-03-03T00:26:26;101276.75;;;4.39;61.41
32081;BME280;18593;51.426;7.030;2023-03-03T00:28:56;101274.13;;;4.57;60.90
32081;BME280;18593;51.426;7.030;2023-03-03T00:31:26;101265.91;;;4.42;61.56
32081;BME280;18593;51.426;7.030;2023-03-03T00:33:55;101265.00;;;4.51;61.82
32081;BME280;18593;51.426;7.030;2023-03-03T00:36:27;101281.38;;;4.55;61.36
32081;BME280;18593;51.426;7.030;2023-03-03T00:39:10;101279.66;;;4.46;61.25
32081;BME280;18593;51.426;7.030;2023-03-03T00:41:41;101285.16;;;4.17;62.80
32081;BME280;18593;51.426;7.030;2023-03-03T00:44:39;101288.59;;;4.17;62.83
32081;BME280;18593;51.426;7.030;2023-03-03T00:47:22;101279.88;;;4.34;62.02
32081;BME280;18593;51.426;7.030;2023-03-03T00:49:51;101282.97;;;4.48;61.58
32081;BME280;18593;51.426;7.030;2023-03-03T00:52:19;101278.22;;;4.51;61.29
32081;BME280;18593;51.426;7.030;2023-03-03T00:54:46;101282.22;;;4.55;61.51
32081;BME280;18593;51.426;7.030;2023-03-03T00:57:13;101284.16;;;4.53;61.32
32081;BME280;18593;51.426;7.030;2023-03-03T00:59:43;101295.72;;;4.52;61.58
32081;BME280;18593;51.426;7.030;2023-03-03T01:02:10;101288.84;;;4.42;61.45
32081;BME280;18593;51.426;7.030;2023-03-03T01:04:37;101290.88;;;4.48;61.26
32081;BME280;18593;51.426;7.030;2023-03-03T01:07:05;101298.34;;;4.52;61.41
32081;BME280;18593;51.426;7.030;2023-03-03T01:09:32;101286.28;;;4.50;61.39
32081;BME280;18593;51.426;7.030;2023-03-03T01:11:59;101301.38;;;4.57;61.15
32081;BME280;18593;51.426;7.030;2023-03-03T01:14:26;101295.09;;;4.58;60.92
32081;BME280;18593;51.426;7.030;2023-03-03T01:16:54;101297.00;;;4.30;62.15
32081;BME280;18593;51.426;7.030;2023-03-03T01:19:21;101302.13;;;4.32;61.75
32081;BME280;18593;51.426;7.030;2023-03-03T01:21:49;101293.81;;;4.27;62.11
32081;BME280;18593;51.426;7.030;2023-03-03T01:24:17;101296.19;;;4.30;61.90
32081;BME280;18593;51.426;7.030;2023-03-03T01:26:43;101294.13;;;4.24;62.40
32081;BME280;18593;51.426;7.030;2023-03-03T01:29:10;101283.88;;;4.21;62.13
32081;BME280;18593;51.426;7.030;2023-03-03T01:31:39;101295.00;;;4.14;62.45
32081;BME280;18593;51.426;7.030;2023-03-03T01:34:10;101294.16;;;3.96;62.91
32081;BME280;18593;51.426;7.030;2023-03-03T01:36:39;101311.75;;;4.05;62.73
32081;BME280;18593;51.426;7.030;2023-03-03T01:39:06;101305.56;;;3.97;63.08
32081;BME280;18593;51.426;7.030;2023-03-03T01:41:33;101295.47;;;4.10;62.75
32081;BME280;18593;51.426;7.030;2023-03-03T01:44:01;101300.66;;;4.02;62.83
32081;BME280;18593;51.426;7.030;2023-03-03T01:46:45;101296.00;;;4.13;62.83
32081;BME280;18593;51.426;7.030;2023-03-03T01:49:17;101296.53;;;4.17;62.36
32081;BME280;18593;51.426;7.030;2023-03-03T01:51:47;101302.47;;;4.19;62.50
32081;BME280;18593;51.426;7.030;2023-03-03T01:54:19;101301.19;;;4.23;62.33
32081;BME280;18593;51.426;7.030;2023-03-03T01:56:48;101290.44;;;4.17;62.42
32081;BME280;18593;51.426;7.030;2023-03-03T01:59:17;101291.16;;;4.09;62.90
32081;BME280;18593;51.426;7.030;2023-03-03T02:01:46;101308.09;;;3.88;63.51
32081;BME280;18593;51.426;7.030;2023-03-03T02:04:13;101300.81;;;4.00;63.73
32081;BME280;18593;51.426;7.030;2023-03-03T02:06:44;101288.44;;;4.19;62.79
32081;BME280;18593;51.426;7.030;2023-03-03T02:09:15;101289.00;;;4.22;62.75
32081;BME280;18593;51.426;7.030;2023-03-03T02:11:44;101283.88;;;4.21;62.68
32081;BME280;18593;51.426;7.030;2023-03-03T02:14:13;101292.75;;;4.20;62.54
32081;BME280;18593;51.426;7.030;2023-03-03T02:16:42;101287.81;;;3.89;63.86
32081;BME280;18593;51.426;7.030;2023-03-03T02:19:12;101279.63;;;4.10;62.96
32081;BME280;18593;51.426;7.030;2023-03-03T02:21:45;101268.09;;;4.11;62.82
32081;BME280;18593;51.426;7.030;2023-03-03T02:24:14;101268.03;;;4.21;62.81
32081;BME280;18593;51.426;7.030;2023-03-03T02:26:43;101272.69;;;4.09;62.93
32081;BME280;18593;51.426;7.030;2023-03-03T02:29:11;101259.94;;;4.22;62.55
32081;BME280;18593;51.426;7.030;2023-03-03T02:31:40;101276.78;;;4.21;62.27
32081;BME280;18593;51.426;7.030;2023-03-03T02:34:07;101271.88;;;4.26;62.33
32081;BME280;18593;51.426;7.030;2023-03-03T02:36:36;101277.31;;;4.25;62.18
32081;BME280;18593;51.426;7.030;2023-03-03T02:39:05;101280.34;;;4.30;62.55
32081;BME280;18593;51.426;7.030;2023-03-03T02:41:34;101295.47;;;4.28;62.18
32081;BME280;18593;51.426;7.030;2023-03-03T02:44:06;101290.59;;;4.15;63.02
32081;BME280;18593;51.426;7.030;2023-03-03T02:46:35;101294.44;;;4.21;62.92
32081;BME280;18593;51.426;7.030;2023-03-03T02:49:03;101296.41;;;3.91;63.60
32081;BME280;18593;51.426;7.030;2023-03-03T02:51:31;101300.31;;;3.87;63.62
32081;BME280;18593;51.426;7.030;2023-03-03T02:53:58;101303.03;;;3.95;63.49
32081;BME280;18593;51.426;7.030;2023-03-03T02:56:28;101301.94;;;3.98;63.33
32081;BME280;18593;51.426;7.030;2023-03-03T02:58:55;101289.66;;;4.06;63.53
32081;BME280;18593;51.426;7.030;2023-03-03T03:01:23;101295.38;;;4.02;63.52
32081;BME280;18593;51.426;7.030;2023-03-03T03:03:52;101291.22;;;3.99;63.64
32081;BME280;18593;51.426;7.030;2023-03-03T03:06:22;101289.28;;;4.01;63.48
32081;BME280;18593;51.426;7.030;2023-03-03T03:08:49;101283.16;;;4.01;63.22
32081;BME280;18593;51.426;7.030;2023-03-03T03:11:16;101289.47;;;3.90;63.61
32081;BME280;18593;51.426;7.030;2023-03-03T03:13:43;101287.13;;;3.87;63.83
32081;BME280;18593;51.426;7.030;2023-03-03T03:16:11;101302.41;;;3.83;64.09
32081;BME280;18593;51.426;7.030;2023-03-03T03:18:40;101303.78;;;3.87;64.10
32081;BME280;18593;51.426;7.030;2023-03-03T03:21:08;101301.19;;;3.78;64.23
32081;BME280;18593;51.426;7.030;2023-03-03T03:23:36;101298.06;;;3.92;63.88
32081;BME280;18593;51.426;7.030;2023-03-03T03:26:04;101296.50;;;3.99;63.55
32081;BME280;18593;51.426;7.030;2023-03-03T03:28:32;101310.63;;;3.80;64.42
32081;BME280;18593;51.426;7.030;2023-03-03T03:31:01;101314.03;;;3.63;65.15
32081;BME280;18593;51.426;7.030;2023-03-03T03:33:28;101311.09;;;3.76;64.86
32081;BME280;18593;51.426;7.030;2023-03-03T03:35:57;101318.53;;;3.80;64.30
32081;BME280;18593;51.426;7.030;2023-03-03T03:38:25;101307.19;;;3.43;65.58
32081;BME280;18593;51.426;7.030;2023-03-03T03:40:53;101311.44;;;3.53;65.38
32081;BME280;18593;51.426;7.030;2023-03-03T03:43:20;101306.25;;;3.71;64.90
32081;BME280;18593;51.426;7.030;2023-03-03T03:45:47;101305.88;;;3.84;64.70
32081;BME280;18593;51.426;7.030;2023-03-03T03:48:15;101305.84;;;3.94;63.81
32081;BME280;18593;51.426;7.030;2023-03-03T03:50:46;101311.63;;;3.70;64.59
32081;BME280;18593;51.426;7.030;2023-03-03T03:53:14;101318.41;;;3.82;64.20
32081;BME280;18593;51.426;7.030;2023-03-03T03:55:42;101318.88;;;3.95;63.57
32081;BME280;18593;51.426;7.030;2023-03-03T03:58:11;101315.66;;;4.01;63.13
32081;BME280;18593;51.426;7.030;2023-03-03T04:00:39;101324.03;;;3.97;63.75
32081;BME280;18593;51.426;7.030;2023-03-03T04:03:06;101325.09;;;3.76;64.27
32081;BME280;18593;51.426;7.030;2023-03-03T04:05:33;101330.50;;;3.75;64.13
32081;BME280;18593;51.426;7.030;2023-03-03T04:08:00;101330.25;;;3.68;64.84
32081;BME280;18593;51.426;7.030;2023-03-03T04:10:28;101334.31;;;3.63;65.03
32081;BME280;18593;51.426;7.030;2023-03-03T04:12:56;101329.81;;;3.73;64.50
32081;BME280;18593;51.426;7.030;2023-03-03T04:15:23;101335.16;;;3.91;64.13
32081;BME280;18593;51.426;7.030;2023-03-03T04:17:50;101330.97;;;3.60;64.88
32081;BME280;18593;51.426;7.030;2023-03-03T04:20:17;101327.19;;;3.73;64.54
32081;BME280;18593;51.426;7.030;2023-03-03T04:22:45;101326.19;;;3.74;64.36
32081;BME280;18593;51.426;7.030;2023-03-03T04:25:15;101328.00;;;3.73;64.53
32081;BME280;18593;51.426;7.030;2023-03-03T04:27:45;101332.25;;;3.56;64.62
32081;BME280;18593;51.426;7.030;2023-03-03T04:30:15;101330.66;;;3.73;64.51
32081;BME280;18593;51.426;7.030;2023-03-03T04:32:45;101332.84;;;3.78;64.02
32081;BME280;18593;51.426;7.030;2023-03-03T04:35:12;101337.91;;;3.71;63.77
32081;BME280;18593;51.426;7.030;2023-03-03T04:37:42;101330.63;;;3.36;64.86
32081;BME280;18593;51.426;7.030;2023-03-03T04:40:10;101330.66;;;3.26;65.53
32081;BME280;18593;51.426;7.030;2023-03-03T04:42:39;101335.59;;;3.49;64.92
32081;BME280;18593;51.426;7.030;2023-03-03T04:45:10;101329.31;;;3.59;64.29
32081;BME280;18593;51.426;7.030;2023-03-03T04:47:37;101340.19;;;3.47;64.43
32081;BME280;18593;51.426;7.030;2023-03-03T04:50:05;101337.06;;;3.14;65.50
32081;BME280;18593;51.426;7.030;2023-03-03T04:52:33;101333.19;;;3.18;65.53
32081;BME280;18593;51.426;7.030;2023-03-03T04:55:02;101349.84;;;3.19;65.59
32081;BME280;18593;51.426;7.030;2023-03-03T04:57:29;101338.31;;;3.20;65.34
32081;BME280;18593;51.426;7.030;2023-03-03T04:59:57;101348.19;;;3.08;65.66
32081;BME280;18593;51.426;7.030;2023-03-03T05:02:25;101350.38;;;3.22;65.05
32081;BME280;18593;51.426;7.030;2023-03-03T05:04:52;101338.50;;;2.89;66.39
32081;BME280;18593;51.426;7.030;2023-03-03T05:07:19;101352.19;;;2.93;66.22
32081;BME280;18593;51.426;7.030;2023-03-03T05:09:46;101343.19;;;2.95;66.11
32081;BME280;18593;51.426;7.030;2023-03-03T05:12:13;101354.31;;;2.89;66.12
32081;BME280;18593;51.426;7.030;2023-03-03T05:14:40;101341.53;;;2.84;66.23
32081;BME280;18593;51.426;7.030;2023-03-03T05:17:07;101345.97;;;3.03;66.10
32081;BME280;18593;51.426;7.030;2023-03-03T05:19:35;101339.56;;;3.06;65.73
32081;BME280;18593;51.426;7.030;2023-03-03T05:22:02;101342.78;;;2.90;66.09
32081;BME280;18593;51.426;7.030;2023-03-03T05:24:29;101336.84;;;2.88;66.44
32081;BME280;18593;51.426;7.030;2023-03-03T05:26:56;101334.88;;;3.00;66.02
32081;BME280;18593;51.426;7.030;2023-03-03T05:29:23;101350.94;;;3.06;65.74
32081;BME280;18593;51.426;7.030;2023-03-03T05:31:50;101340.56;;;2.95;65.92
32081;BME280;18593;51.426;7.030;2023-03-03T05:34:17;101334.47;;;2.95;66.16
32081;BME280;18593;51.426;7.030;2023-03-03T05:36:46;101336.94;;;3.16;65.47
32081;BME280;18593;51.426;7.030;2023-03-03T05:39:13;101342.34;;;3.04;65.63
32081;BME280;18593;51.426;7.030;2023-03-03T05:41:40;101341.63;;;3.12;65.60
32081;BME280;18593;51.426;7.030;2023-03-03T05:44:07;101332.19;;;3.29;65.22
32081;BME280;18593;51.426;7.030;2023-03-03T05:46:35;101337.47;;;3.29;65.17
32081;BME280;18593;51.426;7.030;2023-03-03T05:49:02;101353.66;;;3.44;64.73
32081;BME280;18593;51.426;7.030;2023-03-03T05:51:29;101343.25;;;3.52;64.12
32081;BME280;18593;51.426;7.030;2023-03-03T05:53:57;101350.28;;;3.51;63.96
32081;BME280;18593;51.426;7.030;2023-03-03T05:56:24;101354.94;;;3.30;64.45
32081;BME280;18593;51.426;7.030;2023-03-03T05:58:51;101354.25;;;3.38;64.20
32081;BME280;18593;51.426;7.030;2023-03-03T06:01:18;101348.41;;;3.34;64.39
32081;BME280;18593;51.426;7.030;2023-03-03T06:03:46;101353.66;;;3.44;64.04
32081;BME280;18593;51.426;7.030;2023-03-03T06:06:13;101351.81;;;3.54;63.91
32081;BME280;18593;51.426;7.030;2023-03-03T06:08:41;101349.44;;;3.60;63.46
32081;BME280;18593;51.426;7.030;2023-03-03T06:11:10;101351.63;;;3.65;63.78
32081;BME280;18593;51.426;7.030;2023-03-03T06:13:38;101350.69;;;3.66;63.45
32081;BME280;18593;51.426;7.030;2023-03-03T06:16:06;101363.56;;;3.69;62.93
32081;BME280;18593;51.426;7.030;2023-03-03T06:18:33;101359.66;;;3.73;62.81
32081;BME280;18593;51.426;7.030;2023-03-03T06:21:00;101358.50;;;3.48;63.49
32081;BME280;18593;51.426;7.030;2023-03-03T06:23:27;101367.06;;;3.60;63.49
32081;BME280;18593;51.426;7.030;2023-03-03T06:25:54;101384.13;;;3.66;63.30
32081;BME280;18593;51.426;7.030;2023-03-03T06:28:23;101384.66;;;3.69;63.10
32081;BME280;18593;51.426;7.030;2023-03-03T06:30:52;101386.31;;;3.70;62.86
32081;BME280;18593;51.426;7.030;2023-03-03T06:33:20;101388.50;;;3.47;63.33
32081;BME280;18593;51.426;7.030;2023-03-03T06:35:48;101375.84;;;3.51;63.44
32081;BME280;18593;51.426;7.030;2023-03-03T06:38:15;101382.25;;;3.48;63.22
32081;BME280;18593;51.426;7.030;2023-03-03T06:40:42;101389.72;;;3.53;62.94
32081;BME280;18593;51.426;7.030;2023-03-03T06:43:10;101384.44;;;3.53;62.91
32081;BME280;18593;51.426;7.030;2023-03-03T06:45:38;101382.88;;;3.60;62.74
32081;BME280;18593;51.426;7.030;2023-03-03T06:48:05;101392.88;;;3.66;62.69
32081;BME280;18593;51.426;7.030;2023-03-03T06:50:32;101408.00;;;3.64;62.57
32081;BME280;18593;51.426;7.030;2023-03-03T06:53:01;101406.09;;;3.56;62.75
32081;BME280;18593;51.426;7.030;2023-03-03T06:55:30;101412.53;;;3.25;63.74
32081;BME280;18593;51.426;7.030;2023-03-03T06:57:58;101407.94;;;3.27;63.88
32081;BME280;18593;51.426;7.030;2023-03-03T07:00:26;101411.41;;;3.37;63.43
32081;BME280;18593;51.426;7.030;2023-03-03T07:02:57;101423.22;;;3.33;63.74
32081;BME280;18593;51.426;7.030;2023-03-03T07:05:26;101429.16;;;3.16;64.12
32081;BME280;18593;51.426;7.030;2023-03-03T07:07:53;101414.75;;;3.20;63.88
32081;BME280;18593;51.426;7.030;2023-03-03T07:10:23;101421.97;;;3.27;63.56
32081;BME280;18593;51.426;7.030;2023-03-03T07:12:50;101415.28;;;3.43;63.33
32081;BME280;18593;51.426;7.030;2023-03-03T07:15:20;101425.25;;;3.49;63.00
32081;BME280;18593;51.426;7.030;2023-03-03T07:17:49;101416.66;;;3.56;62.90
32081;BME280;18593;51.426;7.030;2023-03-03T07:20:20;101419.28;;;3.56;62.71
32081;BME280;18593;51.426;7.030;2023-03-03T07:22:48;101417.47;;;3.57;62.62
32081;BME280;18593;51.426;7.030;2023-03-03T07:25:21;101419.34;;;3.27;63.90
32081;BME280;18593;51.426;7.030;2023-03-03T07:27:51;101428.91;;;3.28;64.03
32081;BME280;18593;51.426;7.030;2023-03-03T07:30:25;101434.44;;;2.96;64.91
32081;BME280;18593;51.426;7.030;2023-03-03T07:32:53;101429.16;;;2.96;65.04
32081;BME280;18593;51.426;7.030;2023-03-03T07:35:44;101440.28;;;3.09;64.86
32081;BME280;18593;51.426;7.030;2023-03-03T07:38:19;101440.53;;;3.26;64.21
32081;BME280;18593;51.426;7.030;2023-03-03T07:40:50;101436.25;;;2.96;65.15
32081;BME280;18593;51.426;7.030;2023-03-03T07:43:35;101449.16;;;3.18;64.28
32081;BME280;18593;51.426;7.030;2023-03-03T07:46:23;101445.28;;;3.32;63.78
32081;BME280;18593;51.426;7.030;2023-03-03T07:48:52;101457.59;;;3.31;63.93
32081;BME280;18593;51.426;7.030;2023-03-03T07:51:22;101460.78;;;3.35;63.82
32081;BME280;18593;51.426;7.030;2023-03-03T07:53:53;101469.13;;;3.11;64.20
32081;BME280;18593;51.426;7.030;2023-03-03T07:56:33;101469.13;;;3.11;64.48
32081;BME280;18593;51.426;7.030;2023-03-03T07:59:01;101472.16;;;3.16;64.44
32081;BME280;18593;51.426;7.030;2023-03-03T08:01:37;101478.41;;;3.15;64.31
32081;BME280;18593;51.426;7.030;2023-03-03T08:04:18;101478.81;;;3.10;64.52
32081;BME280;18593;51.426;7.030;2023-03-03T08:06:50;101475.34;;;3.00;65.02
32081;BME280;18593;51.426;7.030;2023-03-03T08:09:36;101480.63;;;3.00;65.09
32081;BME280;18593;51.426;7.030;2023-03-03T08:12:19;101479.09;;;3.17;64.84
32081;BME280;18593;51.426;7.030;2023-03-03T08:14:49;101478.16;;;3.28;64.43
32081;BME280;18593;51.426;7.030;2023-03-03T08:17:19;101481.31;;;3.02;64.83
32081;BME280;18593;51.426;7.030;2023-03-03T08:19:47;101480.78;;;3.18;64.77
32081;BME280;18593;51.426;7.030;2023-03-03T08:22:18;101483.69;;;3.25;64.28
32081;BME280;18593;51.426;7.030;2023-03-03T08:24:45;101483.41;;;2.99;64.95
32081;BME280;18593;51.426;7.030;2023-03-03T08:27:12;101485.22;;;3.18;64.76
32081;BME280;18593;51.426;7.030;2023-03-03T08:29:39;101489.38;;;3.30;64.16
32081;BME280;18593;51.426;7.030;2023-03-03T08:32:06;101487.47;;;3.32;64.15
32081;BME280;18593;51.426;7.030;2023-03-03T08:34:33;101494.91;;;3.46;63.87
32081;BME280;18593;51.426;7.030;2023-03-03T08:36:59;101493.56;;;3.32;63.84
32081;BME280;18593;51.426;7.030;2023-03-03T08:39:28;101493.69;;;3.41;64.18
32081;BME280;18593;51.426;7.030;2023-03-03T08:41:55;101493.81;;;3.49;63.49
32081;BME280;18593;51.426;7.030;2023-03-03T08:44:22;101497.56;;;3.46;63.89
32081;BME280;18593;51.426;7.030;2023-03-03T08:46:49;101505.34;;;3.57;63.50
32081;BME280;18593;51.426;7.030;2023-03-03T08:49:16;101512.97;;;3.60;63.52
32081;BME280;18593;51.426;7.030;2023-03-03T08:51:43;101504.53;;;3.47;63.81
32081;BME280;18593;51.426;7.030;2023-03-03T08:54:10;101510.75;;;3.46;63.57
32081;BME280;18593;51.426;7.030;2023-03-03T08:56:38;101510.47;;;3.40;63.59
32081;BME280;18593;51.426;7.030;2023-03-03T08:59:05;101514.91;;;3.49;63.36
32081;BME280;18593;51.426;7.030;2023-03-03T09:01:32;101514.50;;;3.44;63.55
32081;BME280;18593;51.426;7.030;2023-03-03T09:04:00;101502.97;;;3.25;63.81
32081;BME280;18593;51.426;7.030;2023-03-03T09:06:27;101508.81;;;3.19;64.22
32081;BME280;18593;51.426;7.030;2023-03-03T09:08:54;101519.78;;;3.34;64.14
32081;BME280;18593;51.426;7.030;2023-03-03T09:11:24;101521.44;;;3.45;63.60
32081;BME280;18593;51.426;7.030;2023-03-03T09:13:56;101527.53;;;3.45;63.71
32081;BME280;18593;51.426;7.030;2023-03-03T09:16:36;101528.50;;;3.44;63.67
32081;BME280;18593;51.426;7.030;2023-03-03T09:19:18;101523.09;;;3.36;63.92
32081;BME280;18593;51.426;7.030;2023-03-03T09:21:47;101523.22;;;3.25;64.67
32081;BME280;18593;51.426;7.030;2023-03-03T09:24:20;101521.56;;;3.24;64.85
32081;BME280;18593;51.426;7.030;2023-03-03T09:26:49;101520.03;;;3.41;64.57
32081;BME280;18593;51.426;7.030;2023-03-03T09:29:24;101523.81;;;3.48;64.00
32081;BME280;18593;51.426;7.030;2023-03-03T09:31:52;101521.59;;;3.43;64.16
32081;BME280;18593;51.426;7.030;2023-03-03T09:34:22;101530.19;;;3.45;64.12
32081;BME280;18593;51.426;7.030;2023-03-03T09:36:50;101522.16;;;3.56;63.71
32081;BME280;18593;51.426;7.030;2023-03-03T09:39:19;101529.75;;;3.69;63.60
32081;BME280;18593;51.426;7.030;2023-03-03T09:42:03;101534.47;;;3.66;63.52
32081;BME280;18593;51.426;7.030;2023-03-03T09:45:09;101529.50;;;3.63;63.71
32081;BME280;18593;51.426;7.030;2023-03-03T09:50:31;101541.56;;;3.55;64.01
32081;BME280;18593;51.426;7.030;2023-03-03T09:53:08;101535.44;;;3.65;63.57
32081;BME280;18593;51.426;7.030;2023-03-03T09:55:43;101539.63;;;3.67;63.55
32081;BME280;18593;51.426;7.030;2023-03-03T09:58:30;101538.78;;;3.67;63.51
32081;BME280;18593;51.426;7.030;2023-03-03T10:01:08;101544.75;;;3.69;63.30
32081;BME280;18593;51.426;7.030;2023-03-03T10:03:57;101541.84;;;3.72;63.61
32081;BME280;18593;51.426;7.030;2023-03-03T10:06:32;101543.34;;;3.65;63.60
32081;BME280;18593;51.426;7.030;2023-03-03T10:09:08;101544.19;;;3.65;63.35
32081;BME280;18593;51.426;7.030;2023-03-03T10:11:42;101548.53;;;3.66;63.43
32081;BME280;18593;51.426;7.030;2023-03-03T10:14:28;101555.72;;;3.35;63.72
32081;BME280;18593;51.426;7.030;2023-03-03T10:19:54;101551.69;;;3.31;64.50
32081;BME280;18593;51.426;7.030;2023-03-03T10:22:27;101564.03;;;3.40;63.95
32081;BME280;18593;51.426;7.030;2023-03-03T10:25:08;101560.72;;;3.48;64.46
32081;BME280;18593;51.426;7.030;2023-03-03T10:27:50;101558.63;;;3.51;64.46
32081;BME280;18593;51.426;7.030;2023-03-03T10:30:26;101567.41;;;3.61;63.51
32081;BME280;18593;51.426;7.030;2023-03-03T10:33:00;101555.72;;;3.64;63.73
32081;BME280;18593;51.426;7.030;2023-03-03T10:35:40;101553.78;;;3.56;63.49
32081;BME280;18593;51.426;7.030;2023-03-03T10:38:25;101558.22;;;3.56;64.13
32081;BME280;18593;51.426;7.030;2023-03-03T10:40:58;101562.94;;;3.72;63.49
32081;BME280;18593;51.426;7.030;2023-03-03T10:43:41;101555.44;;;3.86;63.62
32081;BME280;18593;51.426;7.030;2023-03-03T10:46:33;101559.88;;;3.86;63.39
32081;BME280;18593;51.426;7.030;2023-03-03T10:49:21;101565.16;;;3.96;63.19
32081;BME280;18593;51.426;7.030;2023-03-03T10:52:00;101563.47;;;3.95;62.83
32081;BME280;18593;51.426;7.030;2023-03-03T10:54:37;101549.44;;;3.94;63.19
32081;BME280;18593;51.426;7.030;2023-03-03T10:57:13;101561.81;;;3.84;62.87
32081;BME280;18593;51.426;7.030;2023-03-03T10:59:52;101564.88;;;3.89;62.94
32081;BME280;18593;51.426;7.030;2023-03-03T11:02:25;101571.13;;;3.98;62.99
32081;BME280;18593;51.426;7.030;2023-03-03T11:05:01;101573.34;;;3.83;62.84
32081;BME280;18593;51.426;7.030;2023-03-03T11:07:34;101569.88;;;3.82;63.21
32081;BME280;18593;51.426;7.030;2023-03-03T11:12:52;101560.41;;;3.90;62.95
32081;BME280;18593;51.426;7.030;2023-03-03T11:15:45;101565.00;;;3.97;62.96
32081;BME280;18593;51.426;7.030;2023-03-03T11:18:36;101557.78;;;3.99;62.58
32081;BME280;18593;51.426;7.030;2023-03-03T11:21:16;101557.78;;;3.90;62.30
32081;BME280;18593;51.426;7.030;2023-03-03T11:24:01;101565.44;;;3.83;63.07
32081;BME280;18593;51.426;7.030;2023-03-03T11:26:37;101556.09;;;3.98;62.97
32081;BME280;18593;51.426;7.030;2023-03-03T11:29:18;101564.44;;;4.03;62.63
32081;BME280;18593;51.426;7.030;2023-03-03T11:31:48;101555.41;;;4.06;62.23
32081;BME280;18593;51.426;7.030;2023-03-03T11:34:26;101554.84;;;4.12;62.16
32081;BME280;18593;51.426;7.030;2023-03-03T11:37:02;101553.72;;;4.14;61.84
32081;BME280;18593;51.426;7.030;2023-03-03T11:39:31;101548.16;;;4.18;62.09
32081;BME280;18593;51.426;7.030;2023-03-03T11:42:03;101546.63;;;4.25;62.17
32081;BME280;18593;51.426;7.030;2023-03-03T11:44:36;101545.06;;;4.32;61.79
32081;BME280;18593;51.426;7.030;2023-03-03T11:47:08;101542.41;;;4.32;62.11
32081;BME280;18593;51.426;7.030;2023-03-03T11:49:38;101539.94;;;4.30;61.74
32081;BME280;18593;51.426;7.030;2023-03-03T11:52:18;101532.53;;;4.34;61.35
32081;BME280;18593;51.426;7.030;2023-03-03T11:54:48;101530.59;;;4.36;60.92
32081;BME280;18593;51.426;7.030;2023-03-03T11:57:19;101532.59;;;4.14;61.09
32081;BME280;18593;51.426;7.030;2023-03-03T11:59:51;101530.34;;;4.20;61.53
32081;BME280;18593;51.426;7.030;2023-03-03T12:02:44;101534.81;;;4.09;61.38
32081;BME280;18593;51.426;7.030;2023-03-03T12:05:18;101531.34;;;4.19;61.21
32081;BME280;18593;51.426;7.030;2023-03-03T12:07:56;101523.38;;;4.28;61.33
32081;BME280;18593;51.426;7.030;2023-03-03T12:10:29;101533.50;;;4.33;61.13
32081;BME280;18593;51.426;7.030;2023-03-03T12:13:01;101525.91;;;4.30;60.93
32081;BME280;18593;51.426;7.030;2023-03-03T12:15:32;101527.84;;;4.28;61.40
32081;BME280;18593;51.426;7.030;2023-03-03T12:18:14;101518.06;;;4.38;60.98
32081;BME280;18593;51.426;7.030;2023-03-03T12:20:47;101524.53;;;4.26;60.84
32081;BME280;18593;51.426;7.030;2023-03-03T12:23:39;101508.09;;;4.32;61.03
32081;BME280;18593;51.426;7.030;2023-03-03T12:26:15;101513.09;;;4.35;60.83
32081;BME280;18593;51.426;7.030;2023-03-03T12:28:46;101510.88;;;4.30;60.78
32081;BME280;18593;51.426;7.030;2023-03-03T12:31:23;101511.13;;;4.37;61.04
32081;BME280;18593;51.426;7.030;2023-03-03T12:33:54;101506.41;;;4.41;60.53
32081;BME280;18593;51.426;7.030;2023-03-03T12:36:39;101503.59;;;4.42;60.45
32081;BME280;18593;51.426;7.030;2023-03-03T12:39:16;101501.50;;;4.46;60.83
32081;BME280;18593;51.426;7.030;2023-03-03T12:41:49;101501.06;;;4.50;60.83
32081;BME280;18593;51.426;7.030;2023-03-03T12:44:21;101499.41;;;4.49;60.38
32081;BME280;18593;51.426;7.030;2023-03-03T12:46:53;101501.47;;;4.55;60.52
32081;BME280;18593;51.426;7.030;2023-03-03T12:49:24;101502.84;;;4.59;60.60
32081;BME280;18593;51.426;7.030;2023-03-03T12:52:04;101512.41;;;4.60;60.49
32081;BME280;18593;51.426;7.030;2023-03-03T12:54:49;101506.44;;;4.58;60.19
32081;BME280;18593;51.426;7.030;2023-03-03T12:57:23;101507.13;;;4.60;60.41
32081;BME280;18593;51.426;7.030;2023-03-03T13:00:12;101505.31;;;4.61;60.23
32081;BME280;18593;51.426;7.030;2023-03-03T13:02:46;101502.69;;;4.61;60.31
32081;BME280;18593;51.426;7.030;2023-03-03T13:05:19;101506.16;;;4.61;60.06
32081;BME280;18593;51.426;7.030;2023-03-03T13:07:51;101495.44;;;4.63;59.95
32081;BME280;18593;51.426;7.030;2023-03-03T13:10:26;101506.03;;;4.53;60.23
32081;BME280;18593;51.426;7.030;2023-03-03T13:12:58;101500.47;;;4.56;60.57
32081;BME280;18593;51.426;7.030;2023-03-03T13:15:28;101505.13;;;4.45;60.56
32081;BME280;18593;51.426;7.030;2023-03-03T13:18:14;101497.50;;;4.42;60.71
32081;BME280;18593;51.426;7.030;2023-03-03T13:20:48;101495.19;;;4.56;61.10
32081;BME280;18593;51.426;7.030;2023-03-03T13:23:22;101496.13;;;4.65;60.36
32081;BME280;18593;51.426;7.030;2023-03-03T13:25:58;101496.53;;;4.70;60.36
32081;BME280;18593;51.426;7.030;2023-03-03T13:28:30;101495.69;;;4.70;60.45
32081;BME280;18593;51.426;7.030;2023-03-03T13:31:02;101499.41;;;4.77;60.10